sensor_id;sensor_type;location;lat;lon;timestamp;pressure;altitude;pressure_sealevel;temperature;humidity
10587;BME280;5341;47.606;7.576;2023-02-07T00:00:55;100263.88;;;5.51;62.40
10587;BME280;5341;47.606;7.576;2023-02-07T00:03:23;100264.84;;;5.50;61.98
10587;BME280;5341;47.606;7.576;2023-02-07T00:05:51;100257.97;;;5.48;62.03
10587;BME280;5341;47.606;7.576;2023-02-07T00:08:18;100259.78;;;5.47;62.77
10587;BME280;5341;47.606;7.576;2023-02-07T00:10:46;100257.25;;;5.46;62.12
10587;BME280;5341;47.606;7.576;2023-02-07T00:13:14;100262.63;;;5.44;62.48
10587;BME280;5341;47.606;7.576;2023-02-07T00:15:41;100252.03;;;5.44;62.14
10587;BME280;5341;47.606;7.576;2023-02-07T00:18:09;100259.13;;;5.44;62.54
10587;BME280;5341;47.606;7.576;2023-02-07T00:20:39;100244.19;;;5.43;62.08
10587;BME280;5341;47.606;7.576;2023-02-07T00:23:07;100239.84;;;5.42;62.57
10587;BME280;5341;47.606;7.576;2023-02-07T00:25:35;100253.09;;;5.42;62.10
10587;BME280;5341;47.606;7.576;2023-02-07T00:28:03;100246.94;;;5.41;62.16
10587;BME280;5341;47.606;7.576;2023-02-07T00:30:31;100237.28;;;5.40;62.68
10587;BME280;5341;47.606;7.576;2023-02-07T00:32:58;100236.44;;;5.40;62.11
10587;BME280;5341;47.606;7.576;2023-02-07T00:35:26;100230.41;;;5.38;61.95
10587;BME280;5341;47.606;7.576;2023-02-07T00:37:55;100226.06;;;5.37;61.85
10587;BME280;5341;47.606;7.576;2023-02-07T00:40:23;100215.69;;;5.34;62.28
10587;BME280;5341;47.606;7.576;2023-02-07T00:42:50;100215.78;;;5.32;61.80
10587;BME280;5341;47.606;7.576;2023-02-07T00:45:18;100225.78;;;5.28;62.39
10587;BME280;5341;47.606;7.576;2023-02-07T00:47:46;100215.53;;;5.24;61.62
10587;BME280;5341;47.606;7.576;2023-02-07T00:50:15;100228.91;;;5.22;62.08
10587;BME280;5341;47.606;7.576;2023-02-07T00:52:44;100229.00;;;5.21;61.88
10587;BME280;5341;47.606;7.576;2023-02-07T00:55:19;100228.25;;;5.19;62.03
10587;BME280;5341;47.606;7.576;2023-02-07T00:57:48;100218.72;;;5.16;61.58
10587;BME280;5341;47.606;7.576;2023-02-07T01:00:15;100224.88;;;5.17;61.44
10587;BME280;5341;47.606;7.576;2023-02-07T01:02:44;100236.44;;;5.16;61.65
10587;BME280;5341;47.606;7.576;2023-02-07T01:05:12;100230.53;;;5.12;61.49
10587;BME280;5341;47.606;7.576;2023-02-07T01:07:42;100241.13;;;5.12;61.72
10587;BME280;5341;47.606;7.576;2023-02-07T01:10:10;100232.44;;;5.10;61.39
10587;BME280;5341;47.606;7.576;2023-02-07T01:12:41;100226.38;;;5.08;61.63
10587;BME280;5341;47.606;7.576;2023-02-07T01:15:09;100230.94;;;5.06;60.70
10587;BME280;5341;47.606;7.576;2023-02-07T01:17:36;100230.34;;;5.03;60.83
10587;BME280;5341;47.606;7.576;2023-02-07T01:20:04;100234.06;;;5.00;60.50
10587;BME280;5341;47.606;7.576;2023-02-07T01:22:32;100222.72;;;4.98;60.39
10587;BME280;5341;47.606;7.576;2023-02-07T01:25:01;100221.88;;;4.97;59.66
10587;BME280;5341;47.606;7.576;2023-02-07T01:27:29;100229.91;;;4.96;60.18
10587;BME280;5341;47.606;7.576;2023-02-07T01:29:58;100229.19;;;4.94;59.87
10587;BME280;5341;47.606;7.576;2023-02-07T01:32:26;100230.03;;;4.94;60.24
10587;BME280;5341;47.606;7.576;2023-02-07T01:34:54;100223.03;;;4.93;60.34
10587;BME280;5341;47.606;7.576;2023-02-07T01:37:22;100209.78;;;4.93;59.76
10587;BME280;5341;47.606;7.576;2023-02-07T01:39:50;100205.31;;;4.94;60.24
10587;BME280;5341;47.606;7.576;2023-02-07T01:42:19;100205.31;;;4.94;60.32
10587;BME280;5341;47.606;7.576;2023-02-07T01:45:05;100213.28;;;4.94;60.83
10587;BME280;5341;47.606;7.576;2023-02-07T01:47:40;100217.72;;;4.93;60.99
10587;BME280;5341;47.606;7.576;2023-02-07T01:50:08;100225.81;;;4.92;60.53
10587;BME280;5341;47.606;7.576;2023-02-07T01:52:38;100224.00;;;4.92;60.81
10587;BME280;5341;47.606;7.576;2023-02-07T01:55:08;100224.00;;;4.92;60.51
10587;BME280;5341;47.606;7.576;2023-02-07T01:57:37;100214.34;;;4.91;60.24
10587;BME280;5341;47.606;7.576;2023-02-07T02:00:09;100218.81;;;4.91;60.90
10587;BME280;5341;47.606;7.576;2023-02-07T02:02:41;100209.16;;;4.90;60.54
10587;BME280;5341;47.606;7.576;2023-02-07T02:05:12;100203.88;;;4.90;60.45
10587;BME280;5341;47.606;7.576;2023-02-07T02:07:41;100213.63;;;4.89;60.50
10587;BME280;5341;47.606;7.576;2023-02-07T02:10:13;100203.13;;;4.88;60.62
10587;BME280;5341;47.606;7.576;2023-02-07T02:13:05;100216.38;;;4.88;61.02
10587;BME280;5341;47.606;7.576;2023-02-07T02:15:45;100214.81;;;4.85;60.79
10587;BME280;5341;47.606;7.576;2023-02-07T02:24:40;100221.59;;;4.77;59.71
10587;BME280;5341;47.606;7.576;2023-02-07T02:27:26;100227.13;;;4.74;59.87
10587;BME280;5341;47.606;7.576;2023-02-07T02:30:31;100226.47;;;4.70;59.89
10587;BME280;5341;47.606;7.576;2023-02-07T02:33:16;100230.94;;;4.69;59.65
10587;BME280;5341;47.606;7.576;2023-02-07T02:38:42;100247.78;;;4.68;59.75
10587;BME280;5341;47.606;7.576;2023-02-07T02:41:17;100250.44;;;4.68;59.91
10587;BME280;5341;47.606;7.576;2023-02-07T02:43:52;100244.28;;;4.68;59.81
10587;BME280;5341;47.606;7.576;2023-02-07T02:46:26;100249.59;;;4.68;60.65
10587;BME280;5341;47.606;7.576;2023-02-07T02:48:59;100255.84;;;4.67;60.60
10587;BME280;5341;47.606;7.576;2023-02-07T02:51:28;100247.91;;;4.67;60.68
10587;BME280;5341;47.606;7.576;2023-02-07T02:53:57;100247.91;;;4.67;60.37
10587;BME280;5341;47.606;7.576;2023-02-07T02:56:55;100248.88;;;4.66;60.37
10587;BME280;5341;47.606;7.576;2023-02-07T02:59:41;100249.94;;;4.63;60.15
10587;BME280;5341;47.606;7.576;2023-02-07T03:02:21;100247.41;;;4.62;60.08
10587;BME280;5341;47.606;7.576;2023-02-07T03:05:06;100258.94;;;4.61;60.68
10587;BME280;5341;47.606;7.576;2023-02-07T03:07:49;100263.47;;;4.59;60.52
10587;BME280;5341;47.606;7.576;2023-02-07T03:10:29;100262.63;;;4.58;60.06
10587;BME280;5341;47.606;7.576;2023-02-07T03:13:07;100260.94;;;4.57;60.08
10587;BME280;5341;47.606;7.576;2023-02-07T03:15:46;100263.69;;;4.56;60.14
10587;BME280;5341;47.606;7.576;2023-02-07T03:18:18;100263.81;;;4.54;60.40
10587;BME280;5341;47.606;7.576;2023-02-07T03:20:52;100268.25;;;4.54;60.37
10587;BME280;5341;47.606;7.576;2023-02-07T03:23:21;100268.38;;;4.52;60.34
10587;BME280;5341;47.606;7.576;2023-02-07T03:25:50;100273.78;;;4.51;59.94
10587;BME280;5341;47.606;7.576;2023-02-07T03:28:25;100279.09;;;4.51;59.89
10587;BME280;5341;47.606;7.576;2023-02-07T03:30:54;100279.38;;;4.46;60.07
10587;BME280;5341;47.606;7.576;2023-02-07T03:33:23;100283.84;;;4.46;59.83
10587;BME280;5341;47.606;7.576;2023-02-07T03:35:59;100288.28;;;4.45;60.30
10587;BME280;5341;47.606;7.576;2023-02-07T03:38:32;100297.06;;;4.46;60.10
10587;BME280;5341;47.606;7.576;2023-02-07T03:41:05;100299.00;;;4.44;60.52
10587;BME280;5341;47.606;7.576;2023-02-07T03:43:37;100299.09;;;4.42;60.32
10587;BME280;5341;47.606;7.576;2023-02-07T03:46:07;100298.25;;;4.41;59.80
10587;BME280;5341;47.606;7.576;2023-02-07T03:48:36;100315.22;;;4.39;59.75
10587;BME280;5341;47.606;7.576;2023-02-07T03:51:05;100331.09;;;4.39;59.87
10587;BME280;5341;47.606;7.576;2023-02-07T03:53:33;100339.16;;;4.37;60.16
10587;BME280;5341;47.606;7.576;2023-02-07T03:56:04;100339.22;;;4.36;60.17
10587;BME280;5341;47.606;7.576;2023-02-07T03:58:32;100339.22;;;4.36;60.24
10587;BME280;5341;47.606;7.576;2023-02-07T04:01:00;100345.59;;;4.33;60.44
10587;BME280;5341;47.606;7.576;2023-02-07T04:03:27;100351.84;;;4.32;59.76
10587;BME280;5341;47.606;7.576;2023-02-07T04:05:55;100354.59;;;4.31;60.21
10587;BME280;5341;47.606;7.576;2023-02-07T04:08:24;100363.50;;;4.30;60.59
10587;BME280;5341;47.606;7.576;2023-02-07T04:10:58;100370.59;;;4.29;60.16
10587;BME280;5341;47.606;7.576;2023-02-07T04:13:26;100368.06;;;4.28;59.93
10587;BME280;5341;47.606;7.576;2023-02-07T04:15:54;100360.94;;;4.28;60.07
10587;BME280;5341;47.606;7.576;2023-02-07T04:18:21;100361.91;;;4.27;59.96
10587;BME280;5341;47.606;7.576;2023-02-07T04:20:49;100361.06;;;4.27;59.89
10587;BME280;5341;47.606;7.576;2023-02-07T04:23:23;100376.09;;;4.26;60.00
10587;BME280;5341;47.606;7.576;2023-02-07T04:25:58;100372.72;;;4.24;59.88
10587;BME280;5341;47.606;7.576;2023-02-07T04:28:26;100369.28;;;4.22;59.91
10587;BME280;5341;47.606;7.576;2023-02-07T04:30:54;100366.75;;;4.21;59.71
10587;BME280;5341;47.606;7.576;2023-02-07T04:33:21;100374.69;;;4.21;60.07
10587;BME280;5341;47.606;7.576;2023-02-07T04:35:53;100376.50;;;4.20;60.26
10587;BME280;5341;47.606;7.576;2023-02-07T04:38:26;100376.59;;;4.19;59.77
10587;BME280;5341;47.606;7.576;2023-02-07T04:40:58;100379.34;;;4.17;60.36
10587;BME280;5341;47.606;7.576;2023-02-07T04:43:30;100382.09;;;4.16;60.20
10587;BME280;5341;47.606;7.576;2023-02-07T04:46:01;100394.50;;;4.15;59.80
10587;BME280;5341;47.606;7.576;2023-02-07T04:48:30;100395.44;;;4.14;60.26
10587;BME280;5341;47.606;7.576;2023-02-07T04:50:58;100407.75;;;4.15;59.97
10587;BME280;5341;47.606;7.576;2023-02-07T04:53:29;100411.34;;;4.14;59.93
10587;BME280;5341;47.606;7.576;2023-02-07T04:55:59;100415.00;;;4.11;60.04
10587;BME280;5341;47.606;7.576;2023-02-07T04:58:27;100421.25;;;4.10;59.61
10587;BME280;5341;47.606;7.576;2023-02-07T05:00:55;100424.00;;;4.09;60.06
10587;BME280;5341;47.606;7.576;2023-02-07T05:03:23;100432.78;;;4.09;60.04
10587;BME280;5341;47.606;7.576;2023-02-07T05:05:52;100421.47;;;4.07;59.36
10587;BME280;5341;47.606;7.576;2023-02-07T05:08:20;100413.72;;;4.04;60.18
10587;BME280;5341;47.606;7.576;2023-02-07T05:10:52;100421.78;;;4.03;60.15
10587;BME280;5341;47.606;7.576;2023-02-07T05:13:20;100429.94;;;4.00;59.65
10587;BME280;5341;47.606;7.576;2023-02-07T05:15:47;100421.09;;;3.99;59.94
10587;BME280;5341;47.606;7.576;2023-02-07T05:18:15;100423.84;;;3.98;59.55
10587;BME280;5341;47.606;7.576;2023-02-07T05:20:42;100430.94;;;3.97;59.73
10587;BME280;5341;47.606;7.576;2023-02-07T05:23:10;100430.09;;;3.97;59.80
10587;BME280;5341;47.606;7.576;2023-02-07T05:25:40;100441.53;;;3.97;59.98
10587;BME280;5341;47.606;7.576;2023-02-07T05:28:09;100443.34;;;3.97;59.75
10587;BME280;5341;47.606;7.576;2023-02-07T05:30:36;100439.84;;;3.96;59.63
10587;BME280;5341;47.606;7.576;2023-02-07T05:33:05;100441.63;;;3.96;59.75
10587;BME280;5341;47.606;7.576;2023-02-07T05:35:33;100447.88;;;3.95;59.71
10587;BME280;5341;47.606;7.576;2023-02-07T05:38:01;100447.97;;;3.93;59.86
10587;BME280;5341;47.606;7.576;2023-02-07T05:40:29;100446.28;;;3.92;59.64
10587;BME280;5341;47.606;7.576;2023-02-07T05:42:57;100455.06;;;3.93;60.11
10587;BME280;5341;47.606;7.576;2023-02-07T05:45:26;100457.81;;;3.91;59.83
10587;BME280;5341;47.606;7.576;2023-02-07T05:47:53;100461.53;;;3.89;59.84
10587;BME280;5341;47.606;7.576;2023-02-07T05:50:21;100468.69;;;3.87;59.32
10587;BME280;5341;47.606;7.576;2023-02-07T05:52:48;100460.84;;;3.85;59.95
10587;BME280;5341;47.606;7.576;2023-02-07T05:55:16;100465.28;;;3.85;59.39
10587;BME280;5341;47.606;7.576;2023-02-07T05:57:44;100463.50;;;3.85;59.76
10587;BME280;5341;47.606;7.576;2023-02-07T06:00:14;100460.94;;;3.83;59.65
10587;BME280;5341;47.606;7.576;2023-02-07T06:02:46;100469.00;;;3.82;59.72
10587;BME280;5341;47.606;7.576;2023-02-07T06:05:16;100468.13;;;3.81;60.07
10587;BME280;5341;47.606;7.576;2023-02-07T06:07:45;100469.09;;;3.80;59.51
10587;BME280;5341;47.606;7.576;2023-02-07T06:10:13;100470.03;;;3.79;59.66
10587;BME280;5341;47.606;7.576;2023-02-07T06:12:41;100471.84;;;3.79;59.98
10587;BME280;5341;47.606;7.576;2023-02-07T06:15:09;100481.69;;;3.77;60.05
10587;BME280;5341;47.606;7.576;2023-02-07T06:17:36;100487.81;;;3.77;59.39
10587;BME280;5341;47.606;7.576;2023-02-07T06:20:07;100482.63;;;3.76;59.21
10587;BME280;5341;47.606;7.576;2023-02-07T06:22:35;100486.97;;;3.77;59.84
10587;BME280;5341;47.606;7.576;2023-02-07T06:25:04;100486.13;;;3.76;60.06
10587;BME280;5341;47.606;7.576;2023-02-07T06:27:35;100487.03;;;3.75;59.87
10587;BME280;5341;47.606;7.576;2023-02-07T06:30:03;100494.22;;;3.73;59.48
10587;BME280;5341;47.606;7.576;2023-02-07T06:32:31;100492.53;;;3.72;59.95
10587;BME280;5341;47.606;7.576;2023-02-07T06:34:59;100490.81;;;3.71;59.24
10587;BME280;5341;47.606;7.576;2023-02-07T06:37:28;100486.50;;;3.70;59.72
10587;BME280;5341;47.606;7.576;2023-02-07T06:39:56;100504.25;;;3.68;59.43
10587;BME280;5341;47.606;7.576;2023-02-07T06:42:24;100506.06;;;3.68;59.60
10587;BME280;5341;47.606;7.576;2023-02-07T06:44:51;100507.00;;;3.67;59.69
10587;BME280;5341;47.606;7.576;2023-02-07T06:47:18;100508.06;;;3.64;59.18
10587;BME280;5341;47.606;7.576;2023-02-07T06:49:46;100506.31;;;3.63;59.80
10587;BME280;5341;47.606;7.576;2023-02-07T06:52:14;100505.47;;;3.63;59.40
10587;BME280;5341;47.606;7.576;2023-02-07T06:54:43;100499.34;;;3.62;59.68
10587;BME280;5341;47.606;7.576;2023-02-07T06:57:10;100505.66;;;3.60;59.56
10587;BME280;5341;47.606;7.576;2023-02-07T06:59:38;100502.19;;;3.59;59.80
10587;BME280;5341;47.606;7.576;2023-02-07T07:02:05;100505.78;;;3.58;59.40
10587;BME280;5341;47.606;7.576;2023-02-07T07:04:33;100508.50;;;3.57;59.56
10587;BME280;5341;47.606;7.576;2023-02-07T07:07:01;100518.25;;;3.56;59.39
10587;BME280;5341;47.606;7.576;2023-02-07T07:09:28;100520.88;;;3.56;59.46
10587;BME280;5341;47.606;7.576;2023-02-07T07:11:57;100530.53;;;3.57;59.03
10587;BME280;5341;47.606;7.576;2023-02-07T07:14:25;100543.75;;;3.57;59.08
10587;BME280;5341;47.606;7.576;2023-02-07T07:16:52;100556.03;;;3.58;59.20
10587;BME280;5341;47.606;7.576;2023-02-07T07:19:20;100555.19;;;3.58;59.35
10587;BME280;5341;47.606;7.576;2023-02-07T07:21:47;100558.69;;;3.58;59.49
10587;BME280;5341;47.606;7.576;2023-02-07T07:24:14;100553.50;;;3.57;59.42
10587;BME280;5341;47.606;7.576;2023-02-07T07:26:42;100556.97;;;3.57;59.71
10587;BME280;5341;47.606;7.576;2023-02-07T07:29:11;100559.63;;;3.57;59.76
10587;BME280;5341;47.606;7.576;2023-02-07T07:31:39;100558.78;;;3.57;59.79
10587;BME280;5341;47.606;7.576;2023-02-07T07:34:06;100568.50;;;3.56;58.93
10587;BME280;5341;47.606;7.576;2023-02-07T07:36:34;100575.50;;;3.57;59.61
10587;BME280;5341;47.606;7.576;2023-02-07T07:39:02;100570.19;;;3.57;59.24
10587;BME280;5341;47.606;7.576;2023-02-07T07:41:30;100578.03;;;3.59;59.20
10587;BME280;5341;47.606;7.576;2023-02-07T07:43:58;100580.59;;;3.60;59.60
10587;BME280;5341;47.606;7.576;2023-02-07T07:46:27;100579.66;;;3.61;59.60
10587;BME280;5341;47.606;7.576;2023-02-07T07:48:54;100587.47;;;3.63;59.34
10587;BME280;5341;47.606;7.576;2023-02-07T07:51:21;100571.53;;;3.64;59.68
10587;BME280;5341;47.606;7.576;2023-02-07T07:53:50;100572.41;;;3.65;59.43
10587;BME280;5341;47.606;7.576;2023-02-07T07:56:19;100569.66;;;3.66;59.78
10587;BME280;5341;47.606;7.576;2023-02-07T07:58:51;100575.59;;;3.70;59.45
10587;BME280;5341;47.606;7.576;2023-02-07T08:01:19;100578.16;;;3.71;59.82
10587;BME280;5341;47.606;7.576;2023-02-07T08:03:52;100584.19;;;3.73;59.22
10587;BME280;5341;47.606;7.576;2023-02-07T08:06:20;100587.53;;;3.77;59.41
10587;BME280;5341;47.606;7.576;2023-02-07T08:08:47;100582.88;;;3.80;60.03
10587;BME280;5341;47.606;7.576;2023-02-07T08:11:15;100587.13;;;3.83;59.34
10587;BME280;5341;47.606;7.576;2023-02-07T08:13:42;100589.56;;;3.86;59.99
10587;BME280;5341;47.606;7.576;2023-02-07T08:16:10;100587.63;;;3.90;59.49
10587;BME280;5341;47.606;7.576;2023-02-07T08:18:37;100587.41;;;3.93;59.94
10587;BME280;5341;47.606;7.576;2023-02-07T08:21:08;100586.38;;;3.95;59.69
10587;BME280;5341;47.606;7.576;2023-02-07T08:23:36;100589.75;;;3.97;59.75
10587;BME280;5341;47.606;7.576;2023-02-07T08:26:04;100595.81;;;3.99;59.43
10587;BME280;5341;47.606;7.576;2023-02-07T08:28:34;100595.66;;;4.02;60.00
10587;BME280;5341;47.606;7.576;2023-02-07T08:31:04;100591.09;;;4.04;59.47
10587;BME280;5341;47.606;7.576;2023-02-07T08:33:32;100598.00;;;4.07;59.29
10587;BME280;5341;47.606;7.576;2023-02-07T08:36:00;100603.94;;;4.10;59.60
10587;BME280;5341;47.606;7.576;2023-02-07T08:38:31;100597.63;;;4.13;59.91
10587;BME280;5341;47.606;7.576;2023-02-07T08:41:00;100601.88;;;4.16;59.63
10587;BME280;5341;47.606;7.576;2023-02-07T08:43:27;100599.97;;;4.18;59.01
10587;BME280;5341;47.606;7.576;2023-02-07T08:45:55;100603.28;;;4.21;58.95
10587;BME280;5341;47.606;7.576;2023-02-07T08:48:23;100610.00;;;4.27;59.11
10587;BME280;5341;47.606;7.576;2023-02-07T08:50:51;100609.69;;;4.31;58.94
10587;BME280;5341;47.606;7.576;2023-02-07T08:53:18;100614.53;;;4.39;59.40
10587;BME280;5341;47.606;7.576;2023-02-07T08:55:47;100614.00;;;4.47;59.60
10587;BME280;5341;47.606;7.576;2023-02-07T08:58:14;100613.53;;;4.54;59.95
10587;BME280;5341;47.606;7.576;2023-02-07T09:00:43;100612.19;;;4.61;59.38
10587;BME280;5341;47.606;7.576;2023-02-07T09:03:11;100609.13;;;4.67;59.76
10587;BME280;5341;47.606;7.576;2023-02-07T09:05:40;100607.81;;;4.75;59.81
10587;BME280;5341;47.606;7.576;2023-02-07T09:08:22;100599.34;;;4.82;59.75
10587;BME280;5341;47.606;7.576;2023-02-07T09:10:53;100601.50;;;4.90;59.71
10587;BME280;5341;47.606;7.576;2023-02-07T09:13:22;100618.88;;;4.94;60.15
10587;BME280;5341;47.606;7.576;2023-02-07T09:15:54;100606.19;;;4.99;59.49
10587;BME280;5341;47.606;7.576;2023-02-07T09:18:22;100599.72;;;5.03;59.85
10587;BME280;5341;47.606;7.576;2023-02-07T09:20:50;100606.41;;;5.09;59.96
10587;BME280;5341;47.606;7.576;2023-02-07T09:23:18;100610.59;;;5.13;59.46
10587;BME280;5341;47.606;7.576;2023-02-07T09:25:47;100609.63;;;5.14;59.13
10587;BME280;5341;47.606;7.576;2023-02-07T09:28:19;100616.41;;;5.18;59.21
10587;BME280;5341;47.606;7.576;2023-02-07T09:30:48;100617.94;;;5.22;59.07
10587;BME280;5341;47.606;7.576;2023-02-07T09:33:17;100614.44;;;5.21;59.04
10587;BME280;5341;47.606;7.576;2023-02-07T09:35:46;100615.91;;;5.25;58.93
10587;BME280;5341;47.606;7.576;2023-02-07T09:38:17;100618.34;;;5.28;59.28
10587;BME280;5341;47.606;7.576;2023-02-07T09:40:48;100617.19;;;5.33;59.24
10587;BME280;5341;47.606;7.576;2023-02-07T09:43:34;100611.28;;;5.42;59.40
10587;BME280;5341;47.606;7.576;2023-02-07T09:46:12;100601.94;;;5.49;59.18
10587;BME280;5341;47.606;7.576;2023-02-07T09:48:50;100610.13;;;5.58;59.15
10587;BME280;5341;47.606;7.576;2023-02-07T09:51:20;100609.69;;;5.65;58.75
10587;BME280;5341;47.606;7.576;2023-02-07T09:53:51;100598.22;;;5.64;58.49
10587;BME280;5341;47.606;7.576;2023-02-07T09:56:23;100602.38;;;5.68;58.40
10587;BME280;5341;47.606;7.576;2023-02-07T09:58:59;100601.97;;;5.74;58.68
10587;BME280;5341;47.606;7.576;2023-02-07T10:01:33;100606.75;;;5.82;58.32
10587;BME280;5341;47.606;7.576;2023-02-07T10:04:21;100605.47;;;5.87;57.91
10587;BME280;5341;47.606;7.576;2023-02-07T10:06:54;100603.28;;;5.94;57.93
10587;BME280;5341;47.606;7.576;2023-02-07T10:09:28;100605.38;;;6.02;58.23
10587;BME280;5341;47.606;7.576;2023-02-07T10:12:03;100608.47;;;6.08;57.87
10587;BME280;5341;47.606;7.576;2023-02-07T10:14:49;100618.41;;;6.17;58.15
10587;BME280;5341;47.606;7.576;2023-02-07T10:17:34;100624.88;;;6.26;57.55
10587;BME280;5341;47.606;7.576;2023-02-07T10:20:18;100628.28;;;6.28;57.68
10587;BME280;5341;47.606;7.576;2023-02-07T10:22:56;100623.19;;;6.25;56.87
10587;BME280;5341;47.606;7.576;2023-02-07T10:25:35;100630.19;;;6.26;56.96
10587;BME280;5341;47.606;7.576;2023-02-07T10:28:35;100626.06;;;6.35;57.12
10587;BME280;5341;47.606;7.576;2023-02-07T10:31:12;100629.94;;;6.42;57.42
10587;BME280;5341;47.606;7.576;2023-02-07T10:33:46;100632.53;;;6.43;57.00
10587;BME280;5341;47.606;7.576;2023-02-07T10:36:30;100625.81;;;6.38;56.44
10587;BME280;5341;47.606;7.576;2023-02-07T10:39:03;100629.78;;;6.32;56.63
10587;BME280;5341;47.606;7.576;2023-02-07T10:41:37;100626.16;;;6.33;56.73
10587;BME280;5341;47.606;7.576;2023-02-07T10:44:05;100628.47;;;6.38;56.79
10587;BME280;5341;47.606;7.576;2023-02-07T10:46:43;100620.28;;;6.41;57.28
10587;BME280;5341;47.606;7.576;2023-02-07T10:49:18;100630.59;;;6.45;56.60
10587;BME280;5341;47.606;7.576;2023-02-07T10:51:48;100626.44;;;6.54;57.09
10587;BME280;5341;47.606;7.576;2023-02-07T10:54:17;100627.44;;;6.64;57.07
10587;BME280;5341;47.606;7.576;2023-02-07T10:56:50;100629.44;;;6.73;57.03
10587;BME280;5341;47.606;7.576;2023-02-07T10:59:35;100631.03;;;6.76;57.00
10587;BME280;5341;47.606;7.576;2023-02-07T11:02:42;100636.34;;;6.76;56.20
10587;BME280;5341;47.606;7.576;2023-02-07T11:05:29;100634.66;;;6.75;56.42
10587;BME280;5341;47.606;7.576;2023-02-07T11:07:58;100632.22;;;6.72;56.28
10587;BME280;5341;47.606;7.576;2023-02-07T11:10:28;100629.78;;;6.69;56.54
10587;BME280;5341;47.606;7.576;2023-02-07T11:12:59;100635.97;;;6.69;56.58
10587;BME280;5341;47.606;7.576;2023-02-07T11:15:32;100631.25;;;6.73;56.49
10587;BME280;5341;47.606;7.576;2023-02-07T11:18:04;100623.16;;;6.74;56.50
10587;BME280;5341;47.606;7.576;2023-02-07T11:20:34;100618.81;;;6.73;56.67
10587;BME280;5341;47.606;7.576;2023-02-07T11:23:05;100616.03;;;6.75;56.71
10587;BME280;5341;47.606;7.576;2023-02-07T11:25:36;100622.94;;;6.78;56.86
10587;BME280;5341;47.606;7.576;2023-02-07T11:28:05;100608.25;;;6.85;56.84
10587;BME280;5341;47.606;7.576;2023-02-07T11:30:35;100604.50;;;6.87;56.72
10587;BME280;5341;47.606;7.576;2023-02-07T11:33:15;100612.25;;;6.90;56.57
10587;BME280;5341;47.606;7.576;2023-02-07T11:36:02;100600.88;;;6.88;56.16
10587;BME280;5341;47.606;7.576;2023-02-07T11:38:31;100608.97;;;6.87;56.21
10587;BME280;5341;47.606;7.576;2023-02-07T11:41:02;100608.84;;;6.88;56.60
10587;BME280;5341;47.606;7.576;2023-02-07T11:43:32;100614.91;;;6.90;56.30
10587;BME280;5341;47.606;7.576;2023-02-07T11:46:05;100614.16;;;6.88;56.14
10587;BME280;5341;47.606;7.576;2023-02-07T11:48:37;100614.28;;;6.87;56.10
10587;BME280;5341;47.606;7.576;2023-02-07T11:51:07;100604.38;;;6.89;56.35
10587;BME280;5341;47.606;7.576;2023-02-07T11:53:37;100601.41;;;6.93;56.11
10587;BME280;5341;47.606;7.576;2023-02-07T11:56:06;100602.25;;;6.94;56.03
10587;BME280;5341;47.606;7.576;2023-02-07T11:58:43;100599.72;;;6.92;56.20
10587;BME280;5341;47.606;7.576;2023-02-07T12:01:17;100597.78;;;6.94;55.92
10587;BME280;5341;47.606;7.576;2023-02-07T12:03:49;100595.84;;;6.96;55.54
10587;BME280;5341;47.606;7.576;2023-02-07T12:06:26;100597.41;;;6.99;55.97
10587;BME280;5341;47.606;7.576;2023-02-07T12:08:57;100596.25;;;7.03;55.93
10587;BME280;5341;47.606;7.576;2023-02-07T12:11:30;100598.44;;;7.09;56.06
10587;BME280;5341;47.606;7.576;2023-02-07T12:14:07;100595.34;;;7.15;56.06
10587;BME280;5341;47.606;7.576;2023-02-07T12:16:41;100588.44;;;7.24;56.30
10587;BME280;5341;47.606;7.576;2023-02-07T12:19:17;100592.97;;;7.34;56.07
10587;BME280;5341;47.606;7.576;2023-02-07T12:21:52;100585.97;;;7.45;56.03
10587;BME280;5341;47.606;7.576;2023-02-07T12:24:27;100589.88;;;7.52;55.89
10587;BME280;5341;47.606;7.576;2023-02-07T12:26:58;100583.59;;;7.53;55.96
10587;BME280;5341;47.606;7.576;2023-02-07T12:29:34;100586.00;;;7.56;55.68
10587;BME280;5341;47.606;7.576;2023-02-07T12:32:13;100591.06;;;7.59;56.07
10587;BME280;5341;47.606;7.576;2023-02-07T12:34:55;100588.09;;;7.63;56.59
10587;BME280;5341;47.606;7.576;2023-02-07T12:37:28;100585.28;;;7.65;56.90
10587;BME280;5341;47.606;7.576;2023-02-07T12:40:03;100590.13;;;7.71;57.33
10587;BME280;5341;47.606;7.576;2023-02-07T12:42:38;100585.66;;;7.72;56.28
10587;BME280;5341;47.606;7.576;2023-02-07T12:45:13;100574.16;;;7.71;55.90
10587;BME280;5341;47.606;7.576;2023-02-07T12:47:51;100578.28;;;7.64;55.56
10587;BME280;5341;47.606;7.576;2023-02-07T12:50:42;100576.69;;;7.61;55.91
10587;BME280;5341;47.606;7.576;2023-02-07T12:53:27;100565.06;;;7.62;55.81
10587;BME280;5341;47.606;7.576;2023-02-07T12:56:04;100561.22;;;7.67;55.17
10587;BME280;5341;47.606;7.576;2023-02-07T12:58:46;100569.69;;;7.72;55.84
10587;BME280;5341;47.606;7.576;2023-02-07T13:01:20;100562.91;;;7.79;55.68
10587;BME280;5341;47.606;7.576;2023-02-07T13:04:03;100568.47;;;7.87;55.20
10587;BME280;5341;47.606;7.576;2023-02-07T13:06:42;100569.94;;;7.91;55.85
10587;BME280;5341;47.606;7.576;2023-02-07T13:09:17;100562.16;;;7.99;55.24
10587;BME280;5341;47.606;7.576;2023-02-07T13:11:56;100561.44;;;8.08;54.70
10587;BME280;5341;47.606;7.576;2023-02-07T13:14:53;100560.00;;;8.15;55.18
10587;BME280;5341;47.606;7.576;2023-02-07T13:17:39;100566.53;;;8.11;54.63
10587;BME280;5341;47.606;7.576;2023-02-07T13:20:28;100569.31;;;8.10;56.28
10587;BME280;5341;47.606;7.576;2023-02-07T13:23:05;100571.84;;;8.11;56.14
10587;BME280;5341;47.606;7.576;2023-02-07T13:25:40;100579.75;;;8.13;56.10
10587;BME280;5341;47.606;7.576;2023-02-07T13:28:13;100576.13;;;8.14;56.21
10587;BME280;5341;47.606;7.576;2023-02-07T13:30:45;100571.50;;;8.16;56.80
10587;BME280;5341;47.606;7.576;2023-02-07T13:33:24;100573.66;;;8.22;56.86
10587;BME280;5341;47.606;7.576;2023-02-07T13:35:54;100572.34;;;8.28;57.42
10587;BME280;5341;47.606;7.576;2023-02-07T13:38:38;100568.31;;;8.33;57.07
10587;BME280;5341;47.606;7.576;2023-02-07T13:41:15;100568.13;;;8.36;56.93
10587;BME280;5341;47.606;7.576;2023-02-07T13:43:53;100575.75;;;8.41;57.71